createdAt,value
2023-02-25T00:00:58.768Z,100480.75
2023-02-25T00:03:28.058Z,100490.63
2023-02-25T00:05:57.318Z,100487.97
2023-02-25T00:08:26.134Z,100494.47
2023-02-25T00:10:55.367Z,100491.81
2023-02-25T00:13:24.651Z,100493.03
2023-02-25T00:15:53.868Z,100493.03
2023-02-25T00:18:23.196Z,100493.03
2023-02-25T00:20:52.300Z,100489.66
2023-02-25T00:23:20.946Z,100482.44
2023-02-25T00:25:50.328Z,100480.97
2023-02-25T00:28:19.334Z,100486.28
2023-02-25T00:30:49.024Z,100485.59
2023-02-25T00:33:17.899Z,100495.47
2023-02-25T00:35:46.778Z,100489.44
2023-02-25T00:38:16.391Z,100489.44
2023-02-25T00:40:47.058Z,100489.44
2023-02-25T00:43:15.170Z,100504.63
2023-02-25T00:45:44.334Z,100488.72
2023-02-25T00:48:13.917Z,100494.03
2023-02-25T00:50:42.711Z,100499.31
2023-02-25T00:53:12.049Z,100502.47
2023-02-25T00:55:40.872Z,100504.63
2023-02-25T00:58:09.712Z,100495.25
2023-02-25T01:00:50.166Z,100505.84
2023-02-25T01:03:20.683Z,100516.44
2023-02-25T01:05:49.528Z,100519.09
2023-02-25T01:08:17.581Z,100513.81
2023-02-25T01:10:46.311Z,100524.41
2023-02-25T01:13:15.210Z,100513.81
2023-02-25T01:15:44.493Z,100513.06
2023-02-25T01:18:13.896Z,100524.41
2023-02-25T01:20:42.863Z,100523.69
2023-02-25T01:23:12.369Z,100523.69
2023-02-25T01:25:41.658Z,100517.66
2023-02-25T01:28:10.511Z,100520.09
2023-02-25T01:30:39.371Z,100516.44
2023-02-25T01:33:08.134Z,100520.28
2023-02-25T01:35:36.163Z,100522.94
2023-02-25T01:38:04.371Z,100512.34
2023-02-25T01:40:33.197Z,100523.69
2023-02-25T01:43:02.833Z,100512.34
2023-02-25T01:45:32.660Z,100515.00
2023-02-25T01:48:01.377Z,100507.03
2023-02-25T01:50:29.818Z,100512.34
2023-02-25T01:52:57.990Z,100517.66
2023-02-25T01:55:27.181Z,100510.91
2023-02-25T01:57:55.682Z,100512.34
2023-02-25T02:00:23.482Z,100516.22
2023-02-25T02:02:52.870Z,100522.94
2023-02-25T02:05:22.310Z,100518.88
2023-02-25T02:07:51.196Z,100523.47
2023-02-25T02:10:19.792Z,100516.22
2023-02-25T02:12:48.387Z,100518.88
2023-02-25T02:15:17.341Z,100512.16
2023-02-25T02:17:46.735Z,100515.53
2023-02-25T02:20:15.582Z,100515.53
2023-02-25T02:22:44.324Z,100508.06
2023-02-25T02:25:13.556Z,100508.06
2023-02-25T02:27:42.418Z,100514.09
2023-02-25T02:30:11.681Z,100521.53
2023-02-25T02:32:40.188Z,100514.78
2023-02-25T02:35:08.351Z,100514.78
2023-02-25T02:37:37.131Z,100520.09
2023-02-25T02:40:06.419Z,100518.66
2023-02-25T02:42:35.299Z,100514.09
2023-02-25T02:45:04.428Z,100514.09
2023-02-25T02:47:33.197Z,100523.97
2023-02-25T02:50:03.502Z,100518.66
2023-02-25T02:52:31.690Z,100510.72
2023-02-25T02:55:00.547Z,100522.50
2023-02-25T02:57:28.690Z,100517.22
2023-02-25T02:59:56.840Z,100514.56
2023-02-25T03:02:25.808Z,100518.66
2023-02-25T03:04:55.142Z,100521.31
2023-02-25T03:07:24.013Z,100521.31
2023-02-25T03:09:53.350Z,100508.06
2023-02-25T03:12:21.978Z,100513.38
2023-02-25T03:14:50.242Z,100518.66
2023-02-25T03:17:19.187Z,100518.66
2023-02-25T03:19:48.332Z,100520.59
2023-02-25T03:22:18.256Z,100525.16
2023-02-25T03:24:47.549Z,100533.84
2023-02-25T03:27:16.492Z,100531.91
2023-02-25T03:29:45.847Z,100533.09
2023-02-25T03:32:14.815Z,100533.84
2023-02-25T03:34:43.841Z,100533.84
2023-02-25T03:37:14.508Z,100537.72
2023-02-25T03:39:43.755Z,100541.06
2023-02-25T03:42:13.229Z,100539.88
2023-02-25T03:44:43.499Z,100533.84
2023-02-25T03:47:12.390Z,100521.81
2023-02-25T03:49:43.087Z,100522.50
2023-02-25T03:52:11.713Z,100533.09
2023-02-25T03:54:40.959Z,100534.34
2023-02-25T03:57:09.974Z,100552.88
2023-02-25T03:59:38.797Z,100552.44
2023-02-25T04:02:08.226Z,100562.25
2023-02-25T04:04:37.035Z,100566.13
2023-02-25T04:07:05.940Z,100558.91
2023-02-25T04:09:35.372Z,100547.59
2023-02-25T04:12:04.225Z,100554.81
2023-02-25T04:14:33.590Z,100549.00
2023-02-25T04:17:01.992Z,100552.88
2023-02-25T04:19:30.391Z,100551.44
2023-02-25T04:21:59.280Z,100556.72
2023-02-25T04:24:28.617Z,100565.41
2023-02-25T04:26:57.862Z,100563.47
2023-02-25T04:29:27.120Z,100556.72
2023-02-25T04:31:56.464Z,100558.19
2023-02-25T04:34:25.812Z,100558.19
2023-02-25T04:36:54.944Z,100563.47
2023-02-25T04:39:23.719Z,100563.47
2023-02-25T04:41:52.986Z,100568.78
2023-02-25T04:44:22.285Z,100577.94
2023-02-25T04:46:51.551Z,100585.19
2023-02-25T04:49:20.393Z,100580.38
2023-02-25T04:51:49.194Z,100583.03
2023-02-25T04:54:18.000Z,100581.81
2023-02-25T04:56:47.278Z,100584.47
2023-02-25T04:59:16.285Z,100583.75
2023-02-25T05:01:49.573Z,100581.09
2023-02-25T05:04:18.591Z,100579.66
2023-02-25T05:06:46.762Z,100574.34
2023-02-25T05:09:15.881Z,100569.03
2023-02-25T05:11:48.163Z,100576.28
2023-02-25T05:14:17.419Z,100578.94
2023-02-25T05:16:46.228Z,100577.50
2023-02-25T05:19:15.461Z,100578.22
2023-02-25T05:21:44.748Z,100592.66
2023-02-25T05:24:14.021Z,100593.38
2023-02-25T05:26:42.935Z,100591.97
2023-02-25T05:29:12.181Z,100583.28
2023-02-25T05:31:41.686Z,100597.25
2023-02-25T05:34:10.597Z,100595.81
2023-02-25T05:36:39.838Z,100597.25
2023-02-25T05:39:09.068Z,100602.56
2023-02-25T05:41:38.313Z,100599.69
2023-02-25T05:44:07.717Z,100585.00
2023-02-25T05:46:36.970Z,100605.00
2023-02-25T05:49:06.278Z,100608.84
2023-02-25T05:51:35.604Z,100599.69
2023-02-25T05:54:04.956Z,100603.53
2023-02-25T05:56:34.143Z,100595.09
2023-02-25T05:59:03.370Z,100602.34
2023-02-25T06:01:32.609Z,100603.78
2023-02-25T06:04:01.353Z,100594.41
2023-02-25T06:06:29.894Z,100597.06
2023-02-25T06:08:58.541Z,100597.06
2023-02-25T06:11:27.798Z,100604.28
2023-02-25T06:13:57.138Z,100599.69
2023-02-25T06:16:26.929Z,100599.69
2023-02-25T06:18:56.043Z,100599.69
2023-02-25T06:21:25.437Z,100610.28
2023-02-25T06:23:54.227Z,100604.28
2023-02-25T06:26:23.459Z,100610.28
2023-02-25T06:28:52.370Z,100618.25
2023-02-25T06:31:21.435Z,100624.75
2023-02-25T06:33:50.173Z,100611.00
2023-02-25T06:36:19.444Z,100622.31
2023-02-25T06:38:48.221Z,100638.22
2023-02-25T06:41:17.456Z,100647.41
2023-02-25T06:43:46.705Z,100647.41
2023-02-25T06:46:15.568Z,100650.75
2023-02-25T06:48:44.407Z,100632.19
2023-02-25T06:51:13.609Z,100638.22
2023-02-25T06:53:42.578Z,100638.94
2023-02-25T06:56:10.637Z,100650.25
2023-02-25T06:58:39.884Z,100656.25
2023-02-25T07:01:09.166Z,100663.75
2023-02-25T07:03:38.485Z,100666.41
2023-02-25T07:06:07.790Z,100668.31
2023-02-25T07:08:36.519Z,100667.59
2023-02-25T07:11:05.778Z,100667.59
2023-02-25T07:13:34.719Z,100663.75
2023-02-25T07:16:03.444Z,100671.22
2023-02-25T07:18:32.406Z,100683.94
2023-02-25T07:21:02.649Z,100683.94
2023-02-25T07:23:31.683Z,100684.66
2023-02-25T07:26:00.658Z,100694.53
2023-02-25T07:28:29.934Z,100691.88
2023-02-25T07:30:59.744Z,100699.84
2023-02-25T07:33:28.524Z,100705.13
2023-02-25T07:35:57.110Z,100694.09
2023-02-25T07:38:25.654Z,100697.44
2023-02-25T07:40:53.802Z,100689.00
2023-02-25T07:43:22.585Z,100693.59
2023-02-25T07:45:51.992Z,100695.03
2023-02-25T07:48:20.817Z,100712.34
2023-02-25T07:50:49.778Z,100711.38
2023-02-25T07:53:18.415Z,100703.63
2023-02-25T07:55:47.748Z,100705.09
2023-02-25T07:58:16.538Z,100703.41
2023-02-25T08:00:45.835Z,100710.84
2023-02-25T08:03:18.198Z,100716.63
2023-02-25T08:05:49.744Z,100714.19
2023-02-25T08:08:17.875Z,100725.97
2023-02-25T08:10:45.984Z,100725.91
2023-02-25T08:13:15.817Z,100730.47
2023-02-25T08:15:45.341Z,100725.09
2023-02-25T08:18:15.145Z,100731.31
2023-02-25T08:20:44.417Z,100734.91
2023-02-25T08:23:14.125Z,100739.22
2023-02-25T08:25:41.219Z,100741.38
2023-02-25T08:28:10.814Z,100748.84
2023-02-25T08:30:40.114Z,100753.44
2023-02-25T08:33:09.353Z,100755.59
2023-02-25T08:35:38.494Z,100751.00
2023-02-25T08:38:07.718Z,100759.19
2023-02-25T08:40:36.509Z,100757.00
2023-02-25T08:43:05.811Z,100756.31
2023-02-25T08:45:35.132Z,100762.31
2023-02-25T08:48:04.078Z,100757.75
2023-02-25T08:50:33.172Z,100762.09
2023-02-25T08:53:01.814Z,100761.31
2023-02-25T08:55:31.175Z,100765.88
2023-02-25T08:58:00.475Z,100768.47
2023-02-25T09:00:29.752Z,100774.72
2023-02-25T09:02:58.322Z,100779.25
2023-02-25T09:05:26.541Z,100779.72
2023-02-25T09:07:55.772Z,100785.47
2023-02-25T09:10:25.037Z,100786.41
2023-02-25T09:12:54.558Z,100796.53
2023-02-25T09:15:23.818Z,100811.47
2023-02-25T09:17:52.692Z,100808.06
2023-02-25T09:20:21.083Z,100807.94
2023-02-25T09:22:49.899Z,100810.72
2023-02-25T09:25:18.701Z,100813.91
2023-02-25T09:27:47.883Z,100813.22
2023-02-25T09:30:16.690Z,100822.88
2023-02-25T09:32:45.990Z,100824.75
2023-02-25T09:35:15.315Z,100829.78
2023-02-25T09:37:44.651Z,100834.69
2023-02-25T09:40:19.958Z,100842.59
2023-02-25T09:42:49.050Z,100856.97
2023-02-25T09:45:17.325Z,100846.53
2023-02-25T09:47:46.342Z,100840.97
2023-02-25T09:50:14.260Z,100850.94
2023-02-25T09:52:43.072Z,100835.03
2023-02-25T09:55:12.563Z,100846.72
2023-02-25T09:57:41.870Z,100847.50
2023-02-25T10:00:11.459Z,100852.41
2023-02-25T10:02:40.672Z,100850.69
2023-02-25T10:05:09.559Z,100856.53
2023-02-25T10:07:38.406Z,100853.28
2023-02-25T10:10:07.670Z,100848.91
2023-02-25T10:12:36.925Z,100857.78
2023-02-25T10:15:05.741Z,100857.09
2023-02-25T10:17:34.671Z,100862.91
2023-02-25T10:20:03.365Z,100869.47
2023-02-25T10:22:31.760Z,100877.47
2023-02-25T10:25:01.108Z,100881.56
2023-02-25T10:27:32.634Z,100892.63
2023-02-25T10:30:01.409Z,100884.63
2023-02-25T10:32:30.281Z,100887.72
2023-02-25T10:34:59.639Z,100890.81
2023-02-25T10:37:29.077Z,100893.94
2023-02-25T10:39:58.427Z,100899.84
2023-02-25T10:42:27.458Z,100892.84
2023-02-25T10:44:55.696Z,100895.50
2023-02-25T10:47:25.031Z,100892.69
2023-02-25T10:49:54.324Z,100899.75
2023-02-25T10:52:23.907Z,100908.72
2023-02-25T10:54:53.371Z,100905.47
2023-02-25T10:57:22.361Z,100915.97
2023-02-25T10:59:50.946Z,100916.84
2023-02-25T11:02:20.512Z,100926.13
2023-02-25T11:04:49.907Z,100931.56
2023-02-25T11:07:19.246Z,100912.59
2023-02-25T11:09:48.630Z,100929.59
2023-02-25T11:12:17.916Z,100933.66
2023-02-25T11:14:46.664Z,100928.91
2023-02-25T11:17:15.463Z,100944.31
2023-02-25T11:19:44.235Z,100942.69
2023-02-25T11:22:14.461Z,100944.53
2023-02-25T11:24:43.616Z,100952.94
2023-02-25T11:27:12.533Z,100948.25
2023-02-25T11:29:40.847Z,100948.66
2023-02-25T11:32:09.561Z,100938.00
2023-02-25T11:34:38.923Z,100941.47
2023-02-25T11:37:09.391Z,100951.22
2023-02-25T11:39:37.784Z,100939.63
2023-02-25T11:42:05.951Z,100953.75
2023-02-25T11:44:35.345Z,100952.94
2023-02-25T11:47:03.775Z,100953.94
2023-02-25T11:49:33.000Z,100953.84
2023-02-25T11:52:02.216Z,100944.94
2023-02-25T11:54:31.565Z,100952.34
2023-02-25T11:57:00.847Z,100946.31
2023-02-25T11:59:30.093Z,100948.78
2023-02-25T12:01:59.302Z,100947.03
2023-02-25T12:04:29.034Z,100949.28
2023-02-25T12:06:58.253Z,100965.91
2023-02-25T12:09:27.062Z,100966.28
2023-02-25T12:11:55.893Z,100965.25
2023-02-25T12:14:24.833Z,100961.56
2023-02-25T12:16:53.675Z,100967.47
2023-02-25T12:19:23.022Z,100951.69
2023-02-25T12:21:52.306Z,100955.59
2023-02-25T12:24:21.579Z,100943.75
2023-02-25T12:26:50.842Z,100950.75
2023-02-25T12:29:20.224Z,100944.59
2023-02-25T12:31:49.646Z,100946.63
2023-02-25T12:34:21.056Z,100947.41
2023-02-25T12:36:51.075Z,100953.81
2023-02-25T12:39:20.366Z,100953.69
2023-02-25T12:41:49.580Z,100971.06
2023-02-25T12:44:18.869Z,100959.56
2023-02-25T12:46:48.076Z,100962.00
2023-02-25T12:49:16.846Z,100962.44
2023-02-25T12:51:45.575Z,100965.63
2023-02-25T12:54:14.777Z,100963.34
2023-02-25T12:56:44.072Z,100958.75
2023-02-25T12:59:13.325Z,100956.53
2023-02-25T13:01:42.531Z,100963.84
2023-02-25T13:04:11.739Z,100972.06
2023-02-25T13:06:41.098Z,100977.00
2023-02-25T13:09:10.306Z,100981.25
2023-02-25T13:12:09.456Z,100989.19
2023-02-25T13:14:27.983Z,100995.34
2023-02-25T13:16:57.154Z,100998.16
2023-02-25T13:19:26.345Z,101001.00
2023-02-25T13:21:55.151Z,101003.19
2023-02-25T13:24:24.502Z,101003.16
2023-02-25T13:26:53.743Z,101007.31
2023-02-25T13:29:22.773Z,101006.84
2023-02-25T13:31:51.449Z,101009.47
2023-02-25T13:34:20.340Z,101003.06
2023-02-25T13:36:49.599Z,100997.13
2023-02-25T13:39:18.793Z,101010.19
2023-02-25T13:41:47.550Z,101019.13
2023-02-25T13:44:16.830Z,101011.66
2023-02-25T13:46:45.652Z,101021.44
2023-02-25T13:49:14.978Z,101021.69
2023-02-25T13:51:44.166Z,101031.84
2023-02-25T13:54:13.424Z,101040.19
2023-02-25T13:56:42.736Z,101029.38
2023-02-25T13:59:11.970Z,101033.53
2023-02-25T14:01:41.315Z,101038.81
2023-02-25T14:04:10.570Z,101040.19
2023-02-25T14:06:39.431Z,101032.16
2023-02-25T14:09:08.657Z,101042.19
2023-02-25T14:11:37.565Z,101039.38
2023-02-25T14:14:07.004Z,101038.44
2023-02-25T14:16:35.550Z,101051.25
2023-02-25T14:19:04.203Z,101054.47
2023-02-25T14:21:33.134Z,101038.34
2023-02-25T14:24:03.169Z,101057.19
2023-02-25T14:26:32.399Z,101050.03
2023-02-25T14:29:01.722Z,101053.88
2023-02-25T14:31:31.052Z,101070.28
2023-02-25T14:34:00.376Z,101062.22
2023-02-25T14:36:29.651Z,101076.00
2023-02-25T14:38:58.896Z,101074.47
2023-02-25T14:41:28.184Z,101088.66
2023-02-25T14:43:57.557Z,101091.84
2023-02-25T14:46:26.824Z,101100.03
2023-02-25T14:48:55.701Z,101101.03
2023-02-25T14:51:25.431Z,101114.50
2023-02-25T14:53:54.974Z,101107.00
2023-02-25T14:56:24.343Z,101101.69
2023-02-25T14:58:57.771Z,101118.22
2023-02-25T15:01:27.266Z,101112.97
2023-02-25T15:03:56.614Z,101112.69
2023-02-25T15:06:26.167Z,101114.19
2023-02-25T15:08:55.564Z,101110.72
2023-02-25T15:11:25.148Z,101113.59
2023-02-25T15:13:54.656Z,101121.44
2023-02-25T15:16:23.945Z,101122.50
2023-02-25T15:18:53.254Z,101136.06
2023-02-25T15:21:22.298Z,101136.06
2023-02-25T15:23:51.718Z,101133.38
2023-02-25T15:26:21.006Z,101148.44
2023-02-25T15:28:50.484Z,101144.56
2023-02-25T15:31:19.806Z,101148.19
2023-02-25T15:33:49.063Z,101138.69
2023-02-25T15:36:18.378Z,101153.41
2023-02-25T15:38:46.952Z,101165.44
2023-02-25T15:41:15.776Z,101172.09
2023-02-25T15:43:45.039Z,101173.69
2023-02-25T15:46:14.449Z,101170.13
2023-02-25T15:48:43.775Z,101174.34
2023-02-25T15:51:11.591Z,101174.69
2023-02-25T15:53:40.321Z,101179.13
2023-02-25T15:56:09.592Z,101183.78
2023-02-25T15:58:40.155Z,101184.31
2023-02-25T16:01:09.632Z,101200.09
2023-02-25T16:03:39.012Z,101199.41
2023-02-25T16:06:08.335Z,101197.56
2023-02-25T16:08:37.714Z,101209.69
2023-02-25T16:11:06.624Z,101215.50
2023-02-25T16:13:35.888Z,101218.22
2023-02-25T16:16:05.215Z,101219.69
2023-02-25T16:18:35.514Z,101217.78
2023-02-25T16:21:05.407Z,101226.75
2023-02-25T16:23:34.705Z,101227.28
2023-02-25T16:26:03.994Z,101224.16
2023-02-25T16:28:33.358Z,101231.91
2023-02-25T16:31:05.850Z,101232.66
2023-02-25T16:33:34.502Z,101236.31
2023-02-25T16:36:07.993Z,101239.94
2023-02-25T16:38:38.328Z,101243.34
2023-02-25T16:41:07.683Z,101253.50
2023-02-25T16:43:36.973Z,101254.50
2023-02-25T16:46:06.361Z,101262.00
2023-02-25T16:48:35.682Z,101260.31
2023-02-25T16:51:05.363Z,101276.53
2023-02-25T16:53:33.672Z,101276.75
2023-02-25T16:56:02.880Z,101280.88
2023-02-25T16:58:32.100Z,101286.44
2023-02-25T17:01:01.395Z,101282.13
2023-02-25T17:03:30.807Z,101292.28
2023-02-25T17:06:00.300Z,101290.34
2023-02-25T17:08:29.671Z,101296.63
2023-02-25T17:10:58.999Z,101293.97
2023-02-25T17:13:28.440Z,101294.22
2023-02-25T17:15:57.798Z,101304.38
2023-02-25T17:18:26.346Z,101305.31
2023-02-25T17:20:54.580Z,101301.00
2023-02-25T17:23:23.890Z,101307.25
2023-02-25T17:25:53.178Z,101306.78
2023-02-25T17:28:22.532Z,101306.53
2023-02-25T17:30:51.892Z,101316.94
2023-02-25T17:33:21.293Z,101316.69
2023-02-25T17:35:50.084Z,101316.44
2023-02-25T17:38:19.414Z,101317.38
2023-02-25T17:40:48.717Z,101320.56
2023-02-25T17:43:17.932Z,101323.69
2023-02-25T17:45:46.861Z,101332.84
2023-02-25T17:48:16.242Z,101326.09
2023-02-25T17:50:44.748Z,101331.41
2023-02-25T17:53:13.335Z,101331.16
2023-02-25T17:55:42.498Z,101340.06
2023-02-25T17:58:11.721Z,101344.66
2023-02-25T18:00:40.561Z,101344.66
2023-02-25T18:03:10.036Z,101347.09
2023-02-25T18:05:38.895Z,101352.41
2023-02-25T18:08:07.755Z,101362.28
2023-02-25T18:10:38.027Z,101366.13
2023-02-25T18:13:08.222Z,101356.97
2023-02-25T18:15:38.503Z,101367.59
2023-02-25T18:18:08.379Z,101366.13
2023-02-25T18:20:37.721Z,101371.44
2023-02-25T18:23:06.999Z,101374.56
2023-02-25T18:25:36.325Z,101379.16
2023-02-25T18:28:05.582Z,101379.16
2023-02-25T18:30:34.633Z,101384.47
2023-02-25T18:33:02.833Z,101388.34
2023-02-25T18:35:31.672Z,101385.69
2023-02-25T18:38:01.045Z,101389.78
2023-02-25T18:40:30.350Z,101390.50
2023-02-25T18:42:59.532Z,101398.97
2023-02-25T18:45:28.642Z,101399.66
2023-02-25T18:47:58.088Z,101398.97
2023-02-25T18:50:27.270Z,101398.97
2023-02-25T18:52:56.558Z,101405.44
2023-02-25T18:55:25.860Z,101408.84
2023-02-25T18:57:54.738Z,101408.09
2023-02-25T19:00:23.959Z,101406.66
2023-02-25T19:02:52.826Z,101416.06
2023-02-25T19:05:21.755Z,101417.28
2023-02-25T19:07:50.571Z,101417.28
2023-02-25T19:10:19.403Z,101415.81
2023-02-25T19:12:48.623Z,101415.81
2023-02-25T19:15:17.460Z,101426.41
2023-02-25T19:17:46.741Z,101431.72
2023-02-25T19:20:16.901Z,101426.41
2023-02-25T19:22:47.215Z,101430.53
2023-02-25T19:25:20.454Z,101431.72
2023-02-25T19:27:49.752Z,101431.72
2023-02-25T19:30:19.957Z,101432.47
2023-02-25T19:32:50.271Z,101431.25
2023-02-25T19:35:19.524Z,101445.00
2023-02-25T19:37:48.753Z,101442.34
2023-02-25T19:40:17.880Z,101450.31
2023-02-25T19:42:50.925Z,101442.34
2023-02-25T19:45:20.132Z,101440.91
2023-02-25T19:47:48.979Z,101446.22
2023-02-25T19:50:17.545Z,101440.91
2023-02-25T19:52:46.479Z,101450.06
2023-02-25T19:55:15.100Z,101444.03
2023-02-25T19:57:44.000Z,101448.63
2023-02-25T20:00:14.321Z,101450.06
2023-02-25T20:02:45.767Z,101455.13
2023-02-25T20:05:16.171Z,101463.09
2023-02-25T20:07:45.007Z,101466.94
2023-02-25T20:10:14.047Z,101463.09
2023-02-25T20:12:42.712Z,101472.25
2023-02-25T20:15:12.053Z,101476.13
2023-02-25T20:17:41.343Z,101470.56
2023-02-25T20:20:10.845Z,101473.22
2023-02-25T20:22:39.693Z,101489.13
2023-02-25T20:25:08.918Z,101478.50
2023-02-25T20:27:38.636Z,101483.81
2023-02-25T20:30:08.125Z,101484.28
2023-02-25T20:32:37.563Z,101487.69
2023-02-25T20:35:06.868Z,101488.88
2023-02-25T20:37:36.246Z,101490.06
2023-02-25T20:40:05.615Z,101490.06
2023-02-25T20:42:34.448Z,101492.72
2023-02-25T20:45:03.766Z,101500.69
2023-02-25T20:47:32.592Z,101492.47
2023-02-25T20:50:01.549Z,101496.34
2023-02-25T20:52:30.115Z,101505.75
2023-02-25T20:54:59.346Z,101502.81
2023-02-25T20:57:28.345Z,101506.94
2023-02-25T20:59:57.076Z,101504.06
2023-02-25T21:02:30.404Z,101509.38
2023-02-25T21:04:59.656Z,101507.91
2023-02-25T21:07:28.936Z,101507.91
2023-02-25T21:09:58.296Z,101513.69
2023-02-25T21:12:31.729Z,101515.59
2023-02-25T21:15:00.941Z,101520.91
2023-02-25T21:17:29.968Z,101524.75
2023-02-25T21:19:58.590Z,101527.41
2023-02-25T21:22:27.064Z,101533.94
2023-02-25T21:24:59.001Z,101529.34
2023-02-25T21:27:27.622Z,101531.75
2023-02-25T21:29:56.597Z,101530.31
2023-02-25T21:32:24.939Z,101537.53
2023-02-25T21:34:54.542Z,101534.13
2023-02-25T21:37:23.789Z,101532.69
2023-02-25T21:39:53.996Z,101528.09
2023-02-25T21:42:24.434Z,101526.66
2023-02-25T21:44:52.977Z,101531.72
2023-02-25T21:47:22.091Z,101531.72
2023-02-25T21:49:50.725Z,101532.91
2023-02-25T21:52:20.016Z,101543.50
2023-02-25T21:54:48.804Z,101544.72
2023-02-25T21:57:17.540Z,101552.69
2023-02-25T21:59:46.730Z,101551.22
2023-02-25T22:02:16.007Z,101555.09
2023-02-25T22:04:45.219Z,101558.94
2023-02-25T22:07:14.470Z,101560.41
2023-02-25T22:09:43.380Z,101558.94
2023-02-25T22:12:11.582Z,101562.78
2023-02-25T22:14:40.844Z,101568.53
2023-02-25T22:17:10.749Z,101566.63
2023-02-25T22:19:39.488Z,101578.44
2023-02-25T22:22:08.789Z,101581.09
2023-02-25T22:24:38.128Z,101581.09
2023-02-25T22:27:07.309Z,101579.66
2023-02-25T22:29:36.485Z,101580.84
2023-02-25T22:32:05.841Z,101580.34
2023-02-25T22:34:35.184Z,101584.69
2023-02-25T22:37:08.367Z,101585.91
2023-02-25T22:39:37.134Z,101582.50
2023-02-25T22:42:06.472Z,101594.31
2023-02-25T22:44:35.798Z,101596.25
2023-02-25T22:47:04.523Z,101596.25
2023-02-25T22:49:33.417Z,101602.75
2023-02-25T22:52:01.962Z,101589.22
2023-02-25T22:54:30.724Z,101599.81
2023-02-25T22:57:00.056Z,101593.78
2023-02-25T22:59:29.299Z,101593.06
2023-02-25T23:01:58.196Z,101594.28
2023-02-25T23:04:27.500Z,101597.66
2023-02-25T23:06:56.815Z,101592.84
2023-02-25T23:09:26.056Z,101588.72
2023-02-25T23:11:55.214Z,101594.00
2023-02-25T23:14:24.422Z,101597.84
2023-02-25T23:16:53.716Z,101603.16
2023-02-25T23:19:22.989Z,101601.69
2023-02-25T23:21:52.407Z,101601.00
2023-02-25T23:24:21.940Z,101607.00
2023-02-25T23:26:51.256Z,101607.00
2023-02-25T23:29:20.144Z,101611.59
2023-02-25T23:31:49.538Z,101615.47
2023-02-25T23:34:18.927Z,101612.06
2023-02-25T23:36:48.150Z,101620.75
2023-02-25T23:39:16.926Z,101614.72
2023-02-25T23:41:46.200Z,101625.34
2023-02-25T23:44:15.466Z,101618.56
2023-02-25T23:46:44.725Z,101622.69
2023-02-25T23:49:14.062Z,101621.94
2023-02-25T23:51:42.825Z,101623.34
2023-02-25T23:54:12.038Z,101635.94
2023-02-25T23:56:40.847Z,101638.59
2023-02-25T23:59:10.218Z,101645.06
